map of CYR home
CYR - Airport
Location
City:  Colonia, Colonia, Uruguay
Name:Laguna de Los Patos International Airport
ICAO:SUCA
IATA:CYR

Details
Type:Airport (Aerodrome, Airfield)
Use:International (customs port of entry)
Latitude:3427'23"S (-34.456407)
Longitude:5746'14"W (-57.770616)
Datum:WGS 1984
Elevation:66 ft (20 m)
Variation:9.79W (WMM2015v2 magnetic declination)
-0.16 annual change
Runways:unknown number
Longest:4495 ft (1370 m)

Time
Time Zone:UTC-3
Local Time:

Weather
METAR:SUCA 041400Z 17006KT 9999 FEW023 22/13 Q1023
TAF:SUCA 041145Z 0412/0512 04005KT 9999 FEW023 TX24/0418Z TN14/0509Z
BECMG 0506/0508 04010KT

Related Locations
Nearby:
Farthest:YNZ: 12303 mi / 19800 km
Yancheng, 32, CN

Find:

   beyond  
but within

Other Information
Maps:
NOTAMs:
Links:
Sources:

  
  • flag of Uruguay
  • flag of Colonia
  

Sectional Chart

Flight Planning
at skyvector.com

Satellite Image

Google Maps Satellite view

 

Copyright © 2004-2019 Karl L. Swartz. All rights reserved.
The Great Circle Mapper name and logo are trademarks of the Great Circle Mapper.
All other trademarks mentioned herein belong to their respective owners.
Please see credits for attibutions and further copyright information.

  Follow gcmap on Facebook Follow gcmap on Twitter GCmap on LinkedIn

hCard Microformat

Geo Microformat